Time;durP1;ratioP1;P1;durP2;ratioP2;P2;SDS_P1;SDS_P2;PMS_P1;PMS_P2;Temp;Humidity;BMP_temperature;BMP_pressure;BME280_temperature;BME280_humidity;BME280_pressure;Samples;Min_cycle;Max_cycle;Signal;HPM_P1;HPM_P2
2021/05/08 00:00:55;;;;;;;;;;;;;;;6.05;65.44;101817.88;5048002;28;19924;-70
2021/05/08 00:03:21;;;;;;;;;;;;;;;6.02;65.66;101824.13;5057830;28;19954;-70
2021/05/08 00:05:48;;;;;;;;;;;;;;;6.03;64.24;101817.97;5046431;28;20548;-70
2021/05/08 00:08:14;;;;;;;;;;;;;;;5.95;65.24;101817.59;5059081;28;19928;-70
2021/05/08 00:10:40;;;;;;;;;;;;;;;5.86;65.49;101813.75;5060015;28;19951;-70
2021/05/08 00:13:07;;;;;;;;;;;;;;;5.81;66.11;101818.38;5054068;28;20340;-70
2021/05/08 00:15:32;;;;;;;;;;;;;;;5.80;65.67;101819.31;5063262;28;19928;-71
2021/05/08 00:17:58;;;;;;;;;;;;;;;5.74;65.12;101814.47;5032588;28;19932;-70
2021/05/08 00:20:24;;;;;;;;;;;;;;;5.67;65.23;101815.75;5053707;28;20251;-70
2021/05/08 00:22:50;;;;;;;;;;;;;;;5.60;65.62;101811.84;5057515;28;20029;-71
2021/05/08 00:25:16;;;;;;;;;;;;;;;5.51;66.05;101813.22;5047638;28;20172;-72
2021/05/08 00:27:42;;;;;;;;;;;;;;;5.45;67.00;101804.00;5059824;28;19924;-72
2021/05/08 00:30:09;;;;;;;;;;;;;;;5.47;66.36;101804.75;5051179;28;19971;-71
2021/05/08 00:32:35;;;;;;;;;;;;;;;5.42;67.05;101795.53;5035882;28;19986;-72
2021/05/08 00:35:01;;;;;;;;;;;;;;;5.46;66.49;101784.00;5036132;28;19932;-72
2021/05/08 00:37:27;;;;;;;;;;;;;;;5.41;66.76;101788.63;5057934;28;19924;-72
2021/05/08 00:39:53;;;;;;;;;;;;;;;5.40;66.90;101786.97;5059301;28;19931;-72
2021/05/08 00:42:18;;;;;;;;;;;;;;;5.37;66.83;101785.41;5052118;28;19931;-72
2021/05/08 00:44:45;;;;;;;;;;;;;;;5.35;67.43;101785.47;5057861;28;19924;-73
2021/05/08 00:47:12;;;;;;;;;;;;;;;5.38;66.78;101783.63;5047623;28;19924;-72
2021/05/08 00:49:38;;;;;;;;;;;;;;;5.34;67.48;101782.97;5059230;28;20538;-72
2021/05/08 00:52:05;;;;;;;;;;;;;;;5.34;67.98;101783.78;5032389;28;20017;-72
2021/05/08 00:54:30;;;;;;;;;;;;;;;5.39;68.83;101785.28;5057211;28;20111;-72
2021/05/08 00:56:57;;;;;;;;;;;;;;;5.41;66.74;101788.63;5043646;28;20392;-72
2021/05/08 00:59:23;;;;;;;;;;;;;;;5.38;68.45;101789.66;5046002;28;20019;-72
2021/05/08 01:01:48;;;;;;;;;;;;;;;5.39;67.77;101785.28;5052825;28;19929;-72
2021/05/08 01:04:15;;;;;;;;;;;;;;;5.36;66.82;101791.50;5040244;28;19924;-72
2021/05/08 01:06:41;;;;;;;;;;;;;;;5.31;66.94;101783.13;5042798;28;19928;-72
2021/05/08 01:09:07;;;;;;;;;;;;;;;5.27;67.12;101779.91;5051441;28;20376;-73
2021/05/08 01:11:35;;;;;;;;;;;;;;;5.20;67.54;101773.34;5065513;28;20116;-72
2021/05/08 01:14:01;;;;;;;;;;;;;;;5.16;67.35;101769.25;5054888;28;19989;-72
2021/05/08 01:16:28;;;;;;;;;;;;;;;5.10;67.58;101762.63;5052742;28;20364;-72
2021/05/08 01:18:55;;;;;;;;;;;;;;;5.05;68.52;101766.44;5063327;28;19964;-72
2021/05/08 01:21:21;;;;;;;;;;;;;;;5.06;66.83;101763.75;5054035;28;19990;-71
2021/05/08 01:23:48;;;;;;;;;;;;;;;5.01;68.20;101754.53;5060013;28;19925;-71
2021/05/08 01:26:14;;;;;;;;;;;;;;;5.03;69.41;101758.69;5055112;28;19983;-71
2021/05/08 01:28:40;;;;;;;;;;;;;;;5.06;67.56;101760.31;5049079;28;19967;-71
2021/05/08 01:31:07;;;;;;;;;;;;;;;5.04;68.09;101757.78;5045985;28;19924;-71
2021/05/08 01:33:33;;;;;;;;;;;;;;;5.04;67.88;101764.75;5032517;28;20484;-71
2021/05/08 01:35:59;;;;;;;;;;;;;;;5.04;67.69;101752.59;5064202;28;20334;-71
2021/05/08 01:38:25;;;;;;;;;;;;;;;5.07;67.32;101755.00;5054203;28;19924;-71
2021/05/08 01:40:58;;;;;;;;;;;;;;;5.00;68.50;101765.84;5055312;28;19931;-72
2021/05/08 01:43:24;;;;;;;;;;;;;;;5.01;68.74;101762.31;5053854;28;20011;-72
2021/05/08 01:45:50;;;;;;;;;;;;;;;5.01;68.94;101767.53;5043525;28;20269;-71
2021/05/08 01:48:16;;;;;;;;;;;;;;;5.00;68.59;101760.63;5062877;28;19964;-71
2021/05/08 01:50:42;;;;;;;;;;;;;;;5.02;68.60;101761.38;5052969;28;19994;-71
2021/05/08 01:53:08;;;;;;;;;;;;;;;5.02;67.95;101762.25;5062578;28;20446;-71
2021/05/08 01:55:33;;;;;;;;;;;;;;;4.99;68.34;101754.59;5049296;28;19930;-72
2021/05/08 01:58:04;;;;;;;;;;;;;;;4.99;68.47;101762.41;5057097;28;20192;-71
2021/05/08 02:00:37;;;;;;;;;;;;;;;5.03;67.72;101753.50;5064256;28;19924;-72
2021/05/08 02:03:04;;;;;;;;;;;;;;;5.03;67.46;101748.31;5053377;28;20038;-71
2021/05/08 02:05:31;;;;;;;;;;;;;;;5.01;68.09;101750.16;5063277;28;20056;-71
2021/05/08 02:08:01;;;;;;;;;;;;;;;4.99;67.91;101748.56;5052146;28;19978;-72
2021/05/08 02:10:27;;;;;;;;;;;;;;;4.98;68.15;101741.69;5054255;28;19975;-71
2021/05/08 02:12:53;;;;;;;;;;;;;;;4.95;68.71;101733.13;5056471;28;19967;-72
2021/05/08 02:15:19;;;;;;;;;;;;;;;4.98;68.61;101728.69;5064275;28;20001;-72
2021/05/08 02:17:45;;;;;;;;;;;;;;;5.00;69.40;101735.50;5062997;28;20334;-71
2021/05/08 02:20:13;;;;;;;;;;;;;;;4.99;69.27;101732.97;5051139;28;19924;-72
2021/05/08 02:22:39;;;;;;;;;;;;;;;5.01;69.48;101736.31;5054519;28;19935;-72
2021/05/08 02:25:06;;;;;;;;;;;;;;;5.01;69.71;101734.56;5064250;28;19924;-72
2021/05/08 02:27:32;;;;;;;;;;;;;;;5.01;69.83;101731.94;5062471;28;20339;-72
2021/05/08 02:29:58;;;;;;;;;;;;;;;5.06;70.80;101734.31;5046385;28;20402;-72
2021/05/08 02:32:25;;;;;;;;;;;;;;;5.07;70.35;101736.78;5054575;28;19959;-72
2021/05/08 02:34:52;;;;;;;;;;;;;;;5.12;70.48;101731.34;5058499;28;20174;-73
2021/05/08 02:37:18;;;;;;;;;;;;;;;5.13;70.47;101723.44;5049898;28;20224;-73
2021/05/08 02:39:45;;;;;;;;;;;;;;;5.16;70.73;101730.25;5071567;28;19924;-72
2021/05/08 02:42:11;;;;;;;;;;;;;;;5.20;70.59;101725.72;5054017;28;19993;-72
2021/05/08 02:44:37;;;;;;;;;;;;;;;5.20;70.89;101726.53;5060012;28;19971;-71
2021/05/08 02:47:03;;;;;;;;;;;;;;;5.17;71.16;101721.50;5043738;28;20046;-72
2021/05/08 02:49:29;;;;;;;;;;;;;;;5.22;70.93;101727.28;5046615;28;19924;-72
2021/05/08 02:51:55;;;;;;;;;;;;;;;5.20;71.04;101723.94;5055034;28;19939;-72
2021/05/08 02:54:21;;;;;;;;;;;;;;;5.26;70.78;101725.34;5050020;28;20067;-71
2021/05/08 02:56:47;;;;;;;;;;;;;;;5.27;71.05;101717.47;5062631;28;19946;-71
2021/05/08 02:59:13;;;;;;;;;;;;;;;5.31;70.79;101718.09;5037403;28;19943;-72
2021/05/08 03:01:39;;;;;;;;;;;;;;;5.34;71.59;101707.50;5042588;28;20752;-71
2021/05/08 03:04:05;;;;;;;;;;;;;;;5.41;70.60;101710.56;5052874;28;19931;-71
2021/05/08 03:06:31;;;;;;;;;;;;;;;5.43;70.86;101712.19;5047907;28;19988;-71
2021/05/08 03:08:57;;;;;;;;;;;;;;;5.42;71.45;101712.25;5059601;28;20010;-71
2021/05/08 03:11:23;;;;;;;;;;;;;;;5.43;70.75;101703.50;5052693;28;19924;-71
2021/05/08 03:13:49;;;;;;;;;;;;;;;5.46;70.90;101708.56;5061381;28;20337;-71
2021/05/08 03:16:15;;;;;;;;;;;;;;;5.45;70.76;101696.44;5058399;28;20606;-71
2021/05/08 03:18:41;;;;;;;;;;;;;;;5.46;70.66;101687.72;5045770;28;20291;-70
2021/05/08 03:21:07;;;;;;;;;;;;;;;5.46;70.71;101693.75;5061848;28;19947;-71
2021/05/08 03:23:33;;;;;;;;;;;;;;;5.46;70.81;101690.34;5051436;28;20371;-72
2021/05/08 03:25:59;;;;;;;;;;;;;;;5.44;70.91;101685.22;5060803;28;19924;-73
2021/05/08 03:28:25;;;;;;;;;;;;;;;5.45;70.83;101680.84;5051990;28;19930;-73
2021/05/08 03:30:51;;;;;;;;;;;;;;;5.46;70.55;101678.16;5056868;28;19925;-72
2021/05/08 03:33:17;;;;;;;;;;;;;;;5.47;70.54;101673.78;5052588;28;20354;-72
2021/05/08 03:35:43;;;;;;;;;;;;;;;5.44;70.59;101671.38;5051622;28;20299;-72
2021/05/08 03:38:09;;;;;;;;;;;;;;;5.45;69.74;101678.25;5061356;28;19924;-71
2021/05/08 03:40:34;;;;;;;;;;;;;;;5.43;69.64;101669.69;5052388;28;20082;-71
2021/05/08 03:43:00;;;;;;;;;;;;;;;5.41;69.66;101674.16;5041841;28;20237;-70
2021/05/08 03:45:27;;;;;;;;;;;;;;;5.37;70.01;101670.91;5031423;28;20330;-71
2021/05/08 03:47:53;;;;;;;;;;;;;;;5.33;70.11;101672.88;5056024;28;19956;-71
2021/05/08 03:50:19;;;;;;;;;;;;;;;5.32;70.12;101663.38;5057121;28;20125;-71
2021/05/08 03:52:45;;;;;;;;;;;;;;;5.31;70.77;101671.25;5049782;28;20012;-71
2021/05/08 03:55:11;;;;;;;;;;;;;;;5.31;70.91;101668.66;5062276;28;20355;-71
2021/05/08 03:57:37;;;;;;;;;;;;;;;5.32;70.51;101665.13;5049758;28;19977;-72
2021/05/08 04:00:04;;;;;;;;;;;;;;;5.32;70.65;101671.19;5052060;28;20843;-72
2021/05/08 04:02:30;;;;;;;;;;;;;;;5.30;70.59;101664.41;5057213;28;20015;-72
2021/05/08 04:04:56;;;;;;;;;;;;;;;5.28;70.77;101656.69;5052713;28;19924;-72
2021/05/08 04:07:22;;;;;;;;;;;;;;;5.27;70.94;101661.97;5058272;28;19952;-72
2021/05/08 04:09:49;;;;;;;;;;;;;;;5.23;70.99;101655.28;5052425;28;20538;-72
2021/05/08 04:12:15;;;;;;;;;;;;;;;5.20;71.41;101655.47;5053028;28;19936;-72
2021/05/08 04:14:41;;;;;;;;;;;;;;;5.19;71.03;101651.19;5046540;28;20041;-72
2021/05/08 04:17:06;;;;;;;;;;;;;;;5.17;71.03;101647.84;5059349;28;19924;-71
2021/05/08 04:19:33;;;;;;;;;;;;;;;5.12;70.61;101638.56;5060546;28;19928;-71
2021/05/08 04:21:59;;;;;;;;;;;;;;;5.07;70.81;101634.53;5049055;28;19931;-72
2021/05/08 04:24:24;;;;;;;;;;;;;;;5.13;71.60;101647.19;5042933;28;19924;-72
2021/05/08 04:26:50;;;;;;;;;;;;;;;5.12;71.71;101645.53;5046485;28;19924;-71
2021/05/08 04:29:18;;;;;;;;;;;;;;;5.12;71.39;101638.56;5053997;28;19924;-71
2021/05/08 04:31:44;;;;;;;;;;;;;;;5.12;71.80;101638.56;5051185;28;19954;-72
2021/05/08 04:34:09;;;;;;;;;;;;;;;5.13;72.06;101644.59;5059843;28;19924;-71
2021/05/08 04:36:35;;;;;;;;;;;;;;;5.17;71.87;101642.63;5063034;28;19944;-71
2021/05/08 04:39:02;;;;;;;;;;;;;;;5.15;72.14;101642.72;5050388;28;20337;-71
2021/05/08 04:41:28;;;;;;;;;;;;;;;5.16;72.22;101641.81;5051655;28;20437;-72
2021/05/08 04:43:54;;;;;;;;;;;;;;;5.19;72.14;101640.78;5051113;28;19925;-71
2021/05/08 04:46:23;;;;;;;;;;;;;;;5.22;71.97;101643.22;5059056;28;20364;-71
2021/05/08 04:48:54;;;;;;;;;;;;;;;5.27;72.21;101641.16;5048312;28;20546;-71
2021/05/08 04:51:21;;;;;;;;;;;;;;;5.32;71.99;101634.75;5058827;28;20346;-71
2021/05/08 04:53:48;;;;;;;;;;;;;;;5.41;72.11;101627.31;5055503;28;19924;-71
2021/05/08 04:56:15;;;;;;;;;;;;;;;5.49;71.78;101625.94;5051863;28;20351;-71
2021/05/08 04:58:42;;;;;;;;;;;;;;;5.57;72.69;101625.47;5055661;28;20033;-71
2021/05/08 05:01:09;;;;;;;;;;;;;;;5.67;72.71;101621.38;5051863;28;19924;-72
2021/05/08 05:03:35;;;;;;;;;;;;;;;5.79;72.38;101624.13;5062023;28;19974;-71
2021/05/08 05:06:02;;;;;;;;;;;;;;;5.86;72.15;101622.81;5052270;28;20603;-72
2021/05/08 05:08:27;;;;;;;;;;;;;;;5.93;71.66;101609.31;5054428;28;20362;-71
2021/05/08 05:10:55;;;;;;;;;;;;;;;6.02;71.71;101623.56;5056879;28;19951;-72
2021/05/08 05:13:22;;;;;;;;;;;;;;;6.10;71.73;101621.31;5046254;28;19928;-71
2021/05/08 05:15:49;;;;;;;;;;;;;;;6.17;71.58;101626.94;5059584;28;20385;-72
2021/05/08 05:18:14;;;;;;;;;;;;;;;6.25;71.53;101635.13;5052005;28;19971;-72
2021/05/08 05:20:41;;;;;;;;;;;;;;;6.30;70.76;101630.44;5052312;28;19934;-72
2021/05/08 05:23:07;;;;;;;;;;;;;;;6.35;70.94;101632.78;5044049;28;20459;-72
2021/05/08 05:25:33;;;;;;;;;;;;;;;6.40;71.18;101632.47;5058479;28;20037;-72
2021/05/08 05:27:59;;;;;;;;;;;;;;;6.44;70.34;101631.31;5041986;28;20466;-73
2021/05/08 05:30:25;;;;;;;;;;;;;;;6.47;70.62;101625.94;5051571;28;19924;-72
2021/05/08 05:32:51;;;;;;;;;;;;;;;6.51;70.87;101632.59;5056346;28;20071;-73
2021/05/08 05:35:17;;;;;;;;;;;;;;;6.56;70.28;101638.34;5047468;28;20033;-72
2021/05/08 05:37:43;;;;;;;;;;;;;;;6.61;70.82;101636.28;5057308;28;19929;-72
2021/05/08 05:40:09;;;;;;;;;;;;;;;6.68;70.26;101631.47;5054897;28;19970;-73
2021/05/08 05:42:35;;;;;;;;;;;;;;;6.76;70.07;101634.41;5054315;28;20028;-73
2021/05/08 05:45:02;;;;;;;;;;;;;;;6.83;70.41;101622.66;5058558;28;19924;-73
2021/05/08 05:47:31;;;;;;;;;;;;;;;6.89;70.02;101619.63;5046739;28;19986;-73
2021/05/08 05:49:59;;;;;;;;;;;;;;;6.96;69.99;101627.03;5052094;28;19936;-73
2021/05/08 05:52:25;;;;;;;;;;;;;;;7.06;69.15;101615.88;5051498;28;19928;-73
2021/05/08 05:54:51;;;;;;;;;;;;;;;7.13;69.74;101624.97;5058280;28;20454;-73
2021/05/08 05:57:18;;;;;;;;;;;;;;;7.27;69.50;101628.41;5057846;28;20365;-73
2021/05/08 05:59:45;;;;;;;;;;;;;;;7.38;69.12;101628.50;5052144;28;19924;-73
2021/05/08 06:02:11;;;;;;;;;;;;;;;7.48;69.00;101628.69;5058018;28;20359;-73
2021/05/08 06:04:37;;;;;;;;;;;;;;;7.59;69.07;101625.38;5049737;28;19931;-72
2021/05/08 06:07:04;;;;;;;;;;;;;;;7.67;68.51;101628.25;5060709;28;19936;-72
2021/05/08 06:09:30;;;;;;;;;;;;;;;7.77;68.65;101621.44;5053117;28;19928;-73
2021/05/08 06:11:57;;;;;;;;;;;;;;;7.89;67.78;101622.34;5057099;28;19956;-73
2021/05/08 06:14:24;;;;;;;;;;;;;;;7.98;67.51;101615.63;5059811;28;19968;-73
2021/05/08 06:16:50;;;;;;;;;;;;;;;8.09;66.95;101613.91;5053714;28;20192;-72
2021/05/08 06:19:17;;;;;;;;;;;;;;;8.21;66.93;101607.00;5060525;28;20376;-72
2021/05/08 06:21:43;;;;;;;;;;;;;;;8.32;65.91;101604.41;5049559;28;20040;-72
2021/05/08 06:24:09;;;;;;;;;;;;;;;8.40;65.14;101605.63;5044432;28;20340;-71
2021/05/08 06:26:35;;;;;;;;;;;;;;;8.42;63.63;101601.97;5055639;28;20005;-72
2021/05/08 06:29:03;;;;;;;;;;;;;;;8.52;63.89;101595.09;5054068;28;19971;-72
2021/05/08 06:31:29;;;;;;;;;;;;;;;8.57;62.97;101591.34;5067073;28;20017;-72
2021/05/08 06:33:55;;;;;;;;;;;;;;;8.69;63.57;101588.63;5051990;28;20383;-72
2021/05/08 06:36:25;;;;;;;;;;;;;;;8.70;62.04;101597.31;5054834;28;19939;-73
2021/05/08 06:38:51;;;;;;;;;;;;;;;8.81;61.64;101593.88;5055101;28;19924;-74
2021/05/08 06:41:17;;;;;;;;;;;;;;;8.84;60.87;101597.13;5061620;28;20261;-73
2021/05/08 06:43:43;;;;;;;;;;;;;;;8.87;60.04;101593.44;5054347;28;20019;-73
2021/05/08 06:46:09;;;;;;;;;;;;;;;8.93;59.78;101590.34;5049661;28;20425;-73
2021/05/08 06:48:35;;;;;;;;;;;;;;;8.99;59.39;101586.44;5060276;28;19924;-73
2021/05/08 06:51:02;;;;;;;;;;;;;;;9.08;58.83;101589.16;5052743;28;20011;-73
2021/05/08 06:53:28;;;;;;;;;;;;;;;9.13;58.98;101580.13;5060348;28;20025;-73
2021/05/08 06:55:54;;;;;;;;;;;;;;;9.24;59.21;101572.28;5036816;28;19928;-73
2021/05/08 06:58:20;;;;;;;;;;;;;;;9.33;59.14;101565.47;5055472;28;20370;-73
2021/05/08 07:00:46;;;;;;;;;;;;;;;9.31;57.81;101573.47;5054836;28;19931;-73
2021/05/08 07:03:12;;;;;;;;;;;;;;;9.36;57.66;101566.09;5049277;28;20263;-73
2021/05/08 07:05:37;;;;;;;;;;;;;;;9.39;57.37;101565.84;5053477;28;19924;-73
2021/05/08 07:08:08;;;;;;;;;;;;;;;9.45;57.45;101565.38;5051111;28;19932;-73
2021/05/08 07:10:50;;;;;;;;;;;;;;;9.56;58.14;101567.13;5049921;28;20398;-73
2021/05/08 07:13:17;;;;;;;;;;;;;;;9.66;57.07;101565.47;5047783;28;20804;-73
2021/05/08 07:15:51;;;;;;;;;;;;;;;9.68;57.08;101555.69;5058282;28;19963;-73
2021/05/08 07:18:17;;;;;;;;;;;;;;;9.81;56.56;101557.31;5064655;28;19930;-73
2021/05/08 07:20:43;;;;;;;;;;;;;;;9.82;56.10;101557.22;5047091;28;19928;-73
2021/05/08 07:23:10;;;;;;;;;;;;;;;9.94;56.23;101551.91;5051595;28;20025;-73
2021/05/08 07:25:37;;;;;;;;;;;;;;;9.99;55.99;101557.63;5039463;28;21066;-73
2021/05/08 07:28:11;;;;;;;;;;;;;;;10.02;55.56;101560.00;5031607;28;19932;-73
2021/05/08 07:30:37;;;;;;;;;;;;;;;10.12;54.69;101553.06;5052048;28;20316;-73
2021/05/08 07:33:05;;;;;;;;;;;;;;;10.20;54.88;101552.44;5054326;28;19925;-73
2021/05/08 07:35:31;;;;;;;;;;;;;;;10.27;54.18;101548.31;5056739;28;20393;-73
2021/05/08 07:37:57;;;;;;;;;;;;;;;10.32;54.04;101553.25;5027744;28;19924;-73
2021/05/08 07:40:23;;;;;;;;;;;;;;;10.44;54.45;101545.16;5049560;28;19925;-73
2021/05/08 07:42:49;;;;;;;;;;;;;;;10.46;53.62;101552.91;5040030;28;20223;-73
2021/05/08 07:45:14;;;;;;;;;;;;;;;10.54;53.13;101533.91;5057097;28;19928;-73
2021/05/08 07:47:40;;;;;;;;;;;;;;;10.48;52.09;101533.47;5060370;28;19928;-73
2021/05/08 07:50:08;;;;;;;;;;;;;;;10.61;51.62;101529.81;5055938;28;19924;-73
2021/05/08 07:52:34;;;;;;;;;;;;;;;10.75;52.34;101534.72;5061681;28;20028;-73
2021/05/08 07:55:00;;;;;;;;;;;;;;;10.72;51.21;101534.16;5031543;28;19924;-74
2021/05/08 07:57:26;;;;;;;;;;;;;;;10.64;50.47;101521.69;5058572;28;19924;-73
2021/05/08 07:59:52;;;;;;;;;;;;;;;10.73;50.93;101515.66;5048851;28;20285;-73
2021/05/08 08:02:18;;;;;;;;;;;;;;;10.87;51.66;101519.72;5060180;28;19936;-74
2021/05/08 08:04:45;;;;;;;;;;;;;;;10.79;51.34;101514.31;5060502;28;20056;-73
2021/05/08 08:07:11;;;;;;;;;;;;;;;10.89;52.31;101505.50;5049024;28;19924;-74
2021/05/08 08:09:37;;;;;;;;;;;;;;;10.97;52.51;101504.84;5050459;28;19930;-74
2021/05/08 08:12:03;;;;;;;;;;;;;;;10.88;51.71;101497.78;5061711;28;19924;-74
2021/05/08 08:14:29;;;;;;;;;;;;;;;10.91;51.67;101499.31;5056957;28;19964;-73
2021/05/08 08:16:55;;;;;;;;;;;;;;;10.88;51.79;101493.34;5053474;28;19925;-74
2021/05/08 08:19:21;;;;;;;;;;;;;;;10.90;52.11;101495.84;5058227;28;19978;-74
2021/05/08 08:21:47;;;;;;;;;;;;;;;10.99;52.05;101495.03;5048915;28;19924;-73
2021/05/08 08:24:13;;;;;;;;;;;;;;;10.98;51.98;101496.03;5044121;28;19934;-73
2021/05/08 08:26:39;;;;;;;;;;;;;;;11.06;51.92;101496.19;5060179;28;20371;-73
2021/05/08 08:29:05;;;;;;;;;;;;;;;10.97;51.71;101499.59;5053298;28;20023;-73
2021/05/08 08:31:31;;;;;;;;;;;;;;;11.06;52.44;101495.38;5056823;28;19947;-73
2021/05/08 08:33:57;;;;;;;;;;;;;;;11.17;52.19;101491.78;5058737;28;19970;-73
2021/05/08 08:36:23;;;;;;;;;;;;;;;11.22;52.06;101486.97;5046845;28;19955;-74
2021/05/08 08:38:48;;;;;;;;;;;;;;;11.32;52.32;101471.25;5058020;28;19924;-73
2021/05/08 08:41:15;;;;;;;;;;;;;;;11.33;52.12;101479.00;5052370;28;19933;-73
2021/05/08 08:43:42;;;;;;;;;;;;;;;11.45;52.24;101477.06;5058072;28;19978;-73
2021/05/08 08:46:10;;;;;;;;;;;;;;;11.40;51.88;101469.59;5053952;28;19932;-73
2021/05/08 08:48:37;;;;;;;;;;;;;;;11.48;51.00;101467.09;5053909;28;20340;-73
2021/05/08 08:51:03;;;;;;;;;;;;;;;11.53;50.79;101464.09;5052751;28;20027;-73
2021/05/08 08:53:29;;;;;;;;;;;;;;;11.57;51.16;101464.66;5053696;28;19924;-73
2021/05/08 08:55:58;;;;;;;;;;;;;;;11.72;50.57;101458.03;5062859;28;19924;-74
2021/05/08 08:58:31;;;;;;;;;;;;;;;11.75;50.47;101459.53;5056534;28;20446;-73
2021/05/08 09:00:57;;;;;;;;;;;;;;;11.86;49.74;101462.84;5046819;28;19967;-73
2021/05/08 09:03:23;;;;;;;;;;;;;;;11.84;50.09;101453.44;5042449;28;19977;-73
2021/05/08 09:05:50;;;;;;;;;;;;;;;12.09;50.71;101457.31;5057053;28;20473;-73
2021/05/08 09:08:15;;;;;;;;;;;;;;;12.05;49.70;101454.16;5054035;28;19925;-73
2021/05/08 09:10:41;;;;;;;;;;;;;;;12.15;49.90;101448.03;5050160;28;19924;-73
2021/05/08 09:13:13;;;;;;;;;;;;;;;12.16;48.56;101440.00;5061306;28;20350;-73
2021/05/08 09:15:41;;;;;;;;;;;;;;;12.37;50.17;101445.09;5043958;28;20384;-73
2021/05/08 09:18:09;;;;;;;;;;;;;;;12.55;49.16;101432.00;5054912;28;19928;-73
2021/05/08 09:20:48;;;;;;;;;;;;;;;12.69;49.59;101427.25;5049798;28;19928;-73
2021/05/08 09:23:21;;;;;;;;;;;;;;;12.85;48.71;101425.63;5061332;28;20342;-74
2021/05/08 09:26:01;;;;;;;;;;;;;;;12.84;47.78;101429.25;5059959;28;19975;-74
2021/05/08 09:28:28;;;;;;;;;;;;;;;13.02;47.85;101434.56;5055734;28;20037;-74
2021/05/08 09:30:54;;;;;;;;;;;;;;;13.13;48.09;101417.72;5038363;28;19929;-74
2021/05/08 09:33:21;;;;;;;;;;;;;;;13.10;46.58;101415.38;5049935;28;19931;-73
2021/05/08 09:36:06;;;;;;;;;;;;;;;13.24;47.49;101412.22;5045453;28;19928;-72
2021/05/08 09:38:36;;;;;;;;;;;;;;;13.22;47.29;101416.81;5035836;28;20383;-72
2021/05/08 09:41:04;;;;;;;;;;;;;;;13.31;46.66;101415.16;5056326;28;20392;-74
2021/05/08 09:43:30;;;;;;;;;;;;;;;13.43;47.29;101415.75;5059475;28;20357;-74
2021/05/08 09:45:57;;;;;;;;;;;;;;;13.46;47.18;101410.16;5050055;28;19994;-72
2021/05/08 09:48:33;;;;;;;;;;;;;;;13.50;46.60;101408.06;5061834;28;19932;-73
2021/05/08 09:51:16;;;;;;;;;;;;;;;13.60;46.10;101393.84;5052347;28;19930;-73
2021/05/08 09:53:42;;;;;;;;;;;;;;;13.65;45.37;101398.63;5060738;28;19958;-72
2021/05/08 09:56:27;;;;;;;;;;;;;;;13.62;45.39;101391.03;5053956;28;19985;-72
2021/05/08 09:58:54;;;;;;;;;;;;;;;13.90;45.50;101378.56;5055147;28;19931;-73
2021/05/08 10:01:22;;;;;;;;;;;;;;;14.08;45.93;101388.25;5051387;28;20411;-73
2021/05/08 10:03:48;;;;;;;;;;;;;;;13.98;44.32;101380.44;5057925;28;19930;-72
2021/05/08 10:06:15;;;;;;;;;;;;;;;14.04;44.77;101374.53;5059753;28;20454;-73
2021/05/08 10:08:41;;;;;;;;;;;;;;;14.10;45.44;101370.44;5032212;28;19924;-74
2021/05/08 10:11:07;;;;;;;;;;;;;;;14.04;44.49;101369.25;5059737;28;20451;-73
2021/05/08 10:13:33;;;;;;;;;;;;;;;14.14;44.99;101363.88;5046495;28;20137;-73
2021/05/08 10:15:59;;;;;;;;;;;;;;;14.19;45.07;101362.41;5061845;28;19924;-72
2021/05/08 10:18:27;;;;;;;;;;;;;;;14.27;45.08;101366.06;5050611;28;19931;-74
2021/05/08 10:20:54;;;;;;;;;;;;;;;14.38;45.20;101365.78;5062770;28;20427;-75
2021/05/08 10:23:21;;;;;;;;;;;;;;;14.35;44.92;101363.50;5046691;28;20369;-76
2021/05/08 10:25:48;;;;;;;;;;;;;;;14.35;44.08;101361.66;5046865;28;20420;-76
2021/05/08 10:28:14;;;;;;;;;;;;;;;14.39;43.90;101352.44;5055181;28;20338;-76
2021/05/08 10:30:41;;;;;;;;;;;;;;;14.39;44.76;101355.09;5036336;28;19933;-76
2021/05/08 10:33:08;;;;;;;;;;;;;;;14.50;45.68;101358.41;5063872;28;19931;-76
2021/05/08 10:35:38;;;;;;;;;;;;;;;14.48;44.48;101347.19;5060686;28;19940;-73
2021/05/08 10:38:24;;;;;;;;;;;;;;;14.38;44.78;101347.31;5062786;28;20376;-74
2021/05/08 10:40:53;;;;;;;;;;;;;;;14.40;44.60;101334.78;5040055;28;19929;-74
2021/05/08 10:43:38;;;;;;;;;;;;;;;14.32;44.23;101335.56;5060082;28;19924;-76
2021/05/08 10:46:04;;;;;;;;;;;;;;;14.38;44.80;101328.84;5063283;28;20431;-75
2021/05/08 10:48:31;;;;;;;;;;;;;;;14.58;45.44;101332.06;5055074;28;19934;-76
2021/05/08 10:51:00;;;;;;;;;;;;;;;14.58;44.74;101326.78;5036119;28;19924;-77
2021/05/08 10:53:37;;;;;;;;;;;;;;;14.53;44.95;101321.97;5049365;28;20330;-75
2021/05/08 10:56:03;;;;;;;;;;;;;;;14.36;44.38;101314.97;5061420;28;19932;-76
2021/05/08 10:58:33;;;;;;;;;;;;;;;14.42;45.29;101296.69;5044579;28;19978;-75
2021/05/08 11:01:02;;;;;;;;;;;;;;;14.49;45.20;101309.28;5052138;28;19929;-76
2021/05/08 11:03:29;;;;;;;;;;;;;;;14.42;44.80;101303.78;5041627;28;20016;-76
2021/05/08 11:06:03;;;;;;;;;;;;;;;14.26;45.10;101307.19;5054690;28;20241;-77
2021/05/08 11:08:29;;;;;;;;;;;;;;;14.11;44.29;101300.84;5060929;28;19929;-77
2021/05/08 11:10:56;;;;;;;;;;;;;;;13.99;46.34;101295.84;5049597;28;20387;-75
2021/05/08 11:13:24;;;;;;;;;;;;;;;14.11;47.35;101295.56;5058288;28;19932;-74
2021/05/08 11:18:28;;;;;;;;;;;;;;;13.89;47.53;101296.97;5054889;28;19924;-74
2021/05/08 11:20:54;;;;;;;;;;;;;;;13.84;49.42;101292.16;5065130;28;19972;-73
2021/05/08 11:23:22;;;;;;;;;;;;;;;13.60;50.14;101295.44;5047851;28;19924;-75
2021/05/08 11:25:49;;;;;;;;;;;;;;;13.56;50.05;101294.94;5064040;28;19924;-75
2021/05/08 11:28:17;;;;;;;;;;;;;;;13.52;50.64;101290.94;5054345;28;19924;-73
2021/05/08 11:30:53;;;;;;;;;;;;;;;13.55;52.80;101280.13;5063712;28;19970;-73
2021/05/08 11:33:22;;;;;;;;;;;;;;;13.56;52.29;101289.66;5055138;28;19979;-74
2021/05/08 11:35:58;;;;;;;;;;;;;;;13.26;52.07;101280.38;5046863;28;20423;-73
2021/05/08 11:38:24;;;;;;;;;;;;;;;13.32;52.85;101282.41;5043243;28;20395;-73
2021/05/08 11:40:50;;;;;;;;;;;;;;;13.36;55.19;101273.22;5052825;28;19932;-73
2021/05/08 11:43:22;;;;;;;;;;;;;;;13.40;55.58;101271.09;5063771;28;19924;-73
2021/05/08 11:45:48;;;;;;;;;;;;;;;13.17;55.23;101268.94;5040279;28;19977;-73
2021/05/08 11:48:14;;;;;;;;;;;;;;;13.22;57.46;101263.22;5061344;28;19928;-73
2021/05/08 11:50:42;;;;;;;;;;;;;;;13.00;57.33;101264.53;5053008;28;19967;-74
2021/05/08 11:53:18;;;;;;;;;;;;;;;12.89;57.01;101257.66;5043052;28;19924;-73
2021/05/08 11:55:45;;;;;;;;;;;;;;;12.79;57.62;101249.00;5064619;28;19971;-73
2021/05/08 11:58:10;;;;;;;;;;;;;;;12.72;59.23;101256.69;5049647;28;19929;-73
2021/05/08 12:00:36;;;;;;;;;;;;;;;12.49;58.81;101250.22;5056539;28;20108;-72
2021/05/08 12:03:10;;;;;;;;;;;;;;;12.36;61.04;101245.28;5048270;28;19932;-71
2021/05/08 12:05:37;;;;;;;;;;;;;;;12.19;61.92;101244.25;5049553;28;19924;-73
2021/05/08 12:08:04;;;;;;;;;;;;;;;12.26;62.96;101234.81;5060955;28;19924;-73
2021/05/08 12:10:33;;;;;;;;;;;;;;;12.26;64.65;101242.72;5048018;28;19981;-72
2021/05/08 12:12:59;;;;;;;;;;;;;;;12.17;65.56;101233.91;5042772;28;19974;-73
2021/05/08 12:15:33;;;;;;;;;;;;;;;12.15;64.64;101221.88;5028974;28;19963;-74
2021/05/08 12:18:00;;;;;;;;;;;;;;;11.94;65.46;101211.63;5058716;28;20291;-74
2021/05/08 12:20:28;;;;;;;;;;;;;;;12.00;67.09;101200.50;5050249;28;20007;-73
2021/05/08 12:22:56;;;;;;;;;;;;;;;11.86;67.41;101204.44;5060668;28;19928;-74
2021/05/08 12:25:23;;;;;;;;;;;;;;;11.73;67.35;101204.75;5044425;28;19964;-74
2021/05/08 12:27:49;;;;;;;;;;;;;;;11.82;69.72;101197.81;5060310;28;20085;-74
2021/05/08 12:30:15;;;;;;;;;;;;;;;11.81;68.97;101196.94;5061619;28;19976;-74
2021/05/08 12:32:48;;;;;;;;;;;;;;;11.74;68.27;101192.41;5050124;28;20010;-74
2021/05/08 12:35:14;;;;;;;;;;;;;;;11.85;69.96;101197.50;5062412;28;19925;-74
2021/05/08 12:37:41;;;;;;;;;;;;;;;11.80;69.28;101191.84;5056953;28;19991;-74
2021/05/08 12:40:07;;;;;;;;;;;;;;;11.87;70.94;101175.34;5059572;28;19963;-74
2021/05/08 12:42:46;;;;;;;;;;;;;;;11.87;70.41;101169.25;5056642;28;19960;-74
2021/05/08 12:45:13;;;;;;;;;;;;;;;11.88;70.82;101169.13;5057124;28;20025;-75